Time;durP1;ratioP1;P1;durP2;ratioP2;P2;SDS_P1;SDS_P2;PMS_P1;PMS_P2;Temp;Humidity;BMP_temperature;BMP_pressure;BME280_temperature;BME280_humidity;BME280_pressure;Samples;Min_cycle;Max_cycle;Signal;HPM_P1;HPM_P2
2023/08/15 00:00:28;;;;;;;10.25;5.47;;;;;;;20.97;89.00;101070.69;5026031;28;20537;-73
2023/08/15 00:02:55;;;;;;;11.77;5.93;;;;;;;20.99;88.84;101068.75;5028642;28;20041;-71
2023/08/15 00:05:22;;;;;;;10.30;6.10;;;;;;;21.04;89.14;101071.09;5026414;28;20034;-73
2023/08/15 00:08:02;;;;;;;9.35;5.75;;;;;;;21.09;89.85;101060.91;5024629;28;20490;-71
2023/08/15 00:10:30;;;;;;;7.70;5.32;;;;;;;21.13;89.75;101050.81;5026258;28;20526;-71
2023/08/15 00:12:57;;;;;;;8.45;5.07;;;;;;;21.15;89.48;101054.25;5024360;28;20041;-73
2023/08/15 00:15:24;;;;;;;9.05;5.95;;;;;;;21.16;89.86;101039.88;5026167;28;20421;-72
2023/08/15 00:17:51;;;;;;;11.10;5.45;;;;;;;21.17;89.94;101037.06;5025358;28;20068;-72
2023/08/15 00:20:19;;;;;;;9.20;4.95;;;;;;;21.18;90.17;101036.13;5025767;28;20304;-73
2023/08/15 00:22:46;;;;;;;9.70;5.88;;;;;;;21.18;90.14;101036.13;5024806;28;20069;-72
2023/08/15 00:25:13;;;;;;;8.95;5.43;;;;;;;21.19;90.13;101037.00;5024803;28;20057;-71
2023/08/15 00:27:40;;;;;;;10.18;5.50;;;;;;;21.22;90.27;101039.41;5025542;28;20049;-73
2023/08/15 00:30:09;;;;;;;8.70;5.30;;;;;;;21.24;90.26;101035.69;5025151;28;20049;-73
2023/08/15 00:32:36;;;;;;;11.38;5.70;;;;;;;21.28;90.26;101041.69;5006260;28;20061;-71
2023/08/15 00:35:05;;;;;;;7.63;5.25;;;;;;;21.28;90.62;101040.81;5008046;28;20045;-72
2023/08/15 00:37:33;;;;;;;7.85;5.78;;;;;;;21.30;90.80;101052.28;5025363;28;20037;-72
2023/08/15 00:40:02;;;;;;;9.45;5.30;;;;;;;21.31;91.02;101057.56;5006256;28;20045;-72
2023/08/15 00:42:29;;;;;;;9.45;5.15;;;;;;;21.34;90.93;101057.31;5005937;28;20037;-73
2023/08/15 00:44:57;;;;;;;10.23;5.45;;;;;;;21.33;90.65;101042.19;5025635;28;20045;-73
2023/08/15 00:47:25;;;;;;;6.82;4.85;;;;;;;21.34;90.71;101051.09;5007048;28;20120;-72
2023/08/15 00:49:53;;;;;;;6.68;5.60;;;;;;;21.36;91.21;101044.66;5025317;28;20033;-72
2023/08/15 00:52:21;;;;;;;14.93;5.82;;;;;;;21.35;91.01;101050.13;5023766;28;20073;-73
2023/08/15 00:54:50;;;;;;;10.55;5.60;;;;;;;21.36;90.90;101041.13;5024086;28;20202;-72
2023/08/15 00:57:19;;;;;;;8.77;5.50;;;;;;;21.36;90.94;101046.50;5006440;28;20120;-73
2023/08/15 00:59:47;;;;;;;7.75;5.18;;;;;;;21.37;90.91;101053.53;5024830;28;20041;-73
2023/08/15 01:02:14;;;;;;;8.35;5.43;;;;;;;21.37;90.81;101051.72;5027252;28;20077;-71
2023/08/15 01:04:43;;;;;;;7.65;5.25;;;;;;;21.37;90.44;101054.41;5023942;28;20051;-72
2023/08/15 01:07:10;;;;;;;10.70;5.32;;;;;;;21.38;90.44;101049.88;5023913;28;20560;-72
2023/08/15 01:09:38;;;;;;;8.27;5.50;;;;;;;21.37;90.71;101042.81;5024492;28;20045;-72
2023/08/15 01:12:33;;;;;;;11.15;5.43;;;;;;;21.37;90.94;101041.00;5024017;28;20037;-72
2023/08/15 01:15:15;;;;;;;8.45;5.40;;;;;;;21.37;90.81;101034.78;5007066;28;20107;-72
2023/08/15 01:17:48;;;;;;;11.13;5.90;;;;;;;21.35;90.91;101024.16;5024061;28;20045;-73
2023/08/15 01:20:23;;;;;;;8.70;5.53;;;;;;;21.34;91.34;101019.78;5007259;28;20042;-72
2023/08/15 01:22:53;;;;;;;9.52;5.30;;;;;;;21.31;91.02;101017.34;5023279;28;20045;-71
2023/08/15 01:25:21;;;;;;;10.10;5.75;;;;;;;21.29;90.96;101018.41;5024279;28;20131;-71
2023/08/15 01:27:48;;;;;;;9.80;5.88;;;;;;;21.25;90.50;101010.59;5023835;28;20049;-71
2023/08/15 01:30:18;;;;;;;10.05;5.80;;;;;;;21.22;91.06;101007.25;5023630;28;20556;-71
2023/08/15 01:33:21;;;;;;;8.82;5.80;;;;;;;21.19;91.00;100996.78;5007494;28;20041;-73
2023/08/15 01:36:03;;;;;;;8.80;5.43;;;;;;;21.16;91.16;101003.22;5007025;28;20045;-71
2023/08/15 01:38:41;;;;;;;9.55;5.75;;;;;;;21.15;90.74;101014.91;5023766;28;20577;-71
2023/08/15 01:41:16;;;;;;;8.98;5.88;;;;;;;21.13;91.19;101024.00;5006228;28;20123;-72
2023/08/15 01:43:45;;;;;;;8.25;5.57;;;;;;;21.10;90.92;101035.81;5023753;28;20053;-71
2023/08/15 01:46:12;;;;;;;7.65;5.53;;;;;;;21.07;91.08;101038.69;5024626;28;20050;-71
2023/08/15 01:48:42;;;;;;;10.57;6.05;;;;;;;21.05;91.68;101036.16;5024552;28;20053;-71
2023/08/15 01:51:10;;;;;;;8.60;6.20;;;;;;;21.05;91.64;101054.91;5006204;28;20049;-71
2023/08/15 01:53:38;;;;;;;10.82;5.78;;;;;;;21.05;92.15;101062.94;5024010;28;20041;-71
2023/08/15 01:56:06;;;;;;;10.13;5.97;;;;;;;21.07;92.53;101065.50;5003208;28;20065;-71
2023/08/15 01:58:33;;;;;;;8.77;5.60;;;;;;;21.08;92.53;101067.22;5002720;28;20272;-71
2023/08/15 02:01:03;;;;;;;8.35;5.75;;;;;;;21.12;92.57;101071.41;5004693;28;20128;-72
2023/08/15 02:03:31;;;;;;;7.63;6.00;;;;;;;21.15;93.06;101064.97;5005733;28;20073;-71
2023/08/15 02:05:58;;;;;;;7.55;5.97;;;;;;;21.19;92.83;101058.44;5005324;28;20122;-72
2023/08/15 02:08:25;;;;;;;13.30;6.28;;;;;;;21.19;93.18;101064.63;5004908;28;20525;-72
2023/08/15 02:10:53;;;;;;;10.10;5.82;;;;;;;21.21;93.05;101069.91;5006303;28;20215;-72
2023/08/15 02:13:20;;;;;;;8.80;6.32;;;;;;;21.20;93.87;101081.59;5006857;28;20100;-71
2023/08/15 02:15:47;;;;;;;9.80;6.32;;;;;;;21.19;94.09;101079.88;5008996;28;20069;-71
2023/08/15 02:18:14;;;;;;;8.10;6.53;;;;;;;21.18;93.63;101096.91;4991599;28;20049;-71
2023/08/15 02:20:44;;;;;;;12.63;6.53;;;;;;;21.17;93.56;101105.94;4996884;28;20193;-72
2023/08/15 02:23:11;;;;;;;11.70;6.30;;;;;;;21.14;93.27;101106.13;5005662;28;20073;-72
2023/08/15 02:25:38;;;;;;;13.90;6.40;;;;;;;21.09;93.24;101111.81;4987103;28;20099;-71
2023/08/15 02:28:05;;;;;;;8.20;5.78;;;;;;;21.02;92.64;101111.41;4988350;28;20343;-72
2023/08/15 02:30:37;;;;;;;14.95;5.88;;;;;;;20.98;91.98;101107.22;4994174;28;20281;-73
2023/08/15 02:33:07;;;;;;;11.57;5.63;;;;;;;20.92;91.29;101111.19;5008208;28;20096;-73
2023/08/15 02:35:40;;;;;;;11.95;5.90;;;;;;;20.86;91.02;101108.09;5008304;28;20108;-74
2023/08/15 02:38:08;;;;;;;8.13;5.55;;;;;;;20.80;90.52;101101.34;5007582;28;20525;-74
2023/08/15 02:40:37;;;;;;;11.13;5.63;;;;;;;20.71;89.40;101108.13;5005490;28;20101;-72
2023/08/15 02:43:04;;;;;;;10.45;5.03;;;;;;;20.63;88.49;101116.72;5007059;28;20042;-75
2023/08/15 02:45:31;;;;;;;11.30;5.30;;;;;;;20.54;88.21;101119.16;5007568;28;20042;-71
2023/08/15 02:47:58;;;;;;;10.55;4.97;;;;;;;20.46;88.51;101114.31;5006630;28;20038;-70
2023/08/15 02:50:25;;;;;;;10.85;4.88;;;;;;;20.42;88.13;101119.03;5006327;28;20042;-72
2023/08/15 02:52:53;;;;;;;11.88;4.95;;;;;;;20.38;87.27;101120.22;5007785;28;20057;-73
2023/08/15 02:55:20;;;;;;;8.63;4.43;;;;;;;20.33;87.13;101117.84;5017142;28;20053;-73
2023/08/15 02:57:47;;;;;;;13.02;4.63;;;;;;;20.29;86.18;101119.00;5009703;28;20049;-73
2023/08/15 03:00:14;;;;;;;11.13;4.07;;;;;;;20.23;85.82;101122.09;5026092;28;20095;-73
2023/08/15 03:02:41;;;;;;;9.77;3.88;;;;;;;20.16;84.74;101123.44;5030230;28;20049;-72
2023/08/15 03:05:09;;;;;;;12.32;3.83;;;;;;;20.08;84.27;101113.28;5007519;28;20042;-72
2023/08/15 03:07:36;;;;;;;8.45;3.88;;;;;;;20.02;83.33;101117.22;5025880;28;20233;-73
2023/08/15 03:10:04;;;;;;;8.95;3.67;;;;;;;19.96;83.31;101122.09;5008008;28;20391;-72
2023/08/15 03:12:31;;;;;;;13.85;3.50;;;;;;;19.90;83.17;101130.50;5025586;28;20069;-73
2023/08/15 03:15:00;;;;;;;9.13;3.65;;;;;;;19.86;83.17;101130.72;5009641;28;20565;-71
2023/08/15 03:17:27;;;;;;;6.25;2.92;;;;;;;19.79;82.36;101123.16;5028932;28;20577;-72
2023/08/15 03:19:55;;;;;;;9.63;3.53;;;;;;;19.75;82.50;101129.66;5008735;28;20521;-72
2023/08/15 03:22:22;;;;;;;10.38;3.35;;;;;;;19.69;82.78;101123.75;5023963;28;20049;-73
2023/08/15 03:24:49;;;;;;;9.27;3.28;;;;;;;19.68;82.90;101137.25;5008528;28;20104;-73
2023/08/15 03:27:16;;;;;;;7.32;3.70;;;;;;;19.68;82.97;101130.06;5007606;28;20041;-73
2023/08/15 03:29:43;;;;;;;9.65;4.28;;;;;;;19.67;83.09;101132.84;5026806;28;20796;-72
2023/08/15 03:32:10;;;;;;;12.02;4.20;;;;;;;19.67;82.82;101130.19;5008571;28;20041;-72
2023/08/15 03:34:38;;;;;;;6.80;3.45;;;;;;;19.65;82.96;101124.06;5008693;28;20053;-72
2023/08/15 03:37:05;;;;;;;9.68;4.10;;;;;;;19.64;83.28;101133.88;5008211;28;20049;-72
2023/08/15 03:39:32;;;;;;;8.85;3.95;;;;;;;19.64;83.24;101128.53;5023215;28;20045;-72
2023/08/15 03:41:59;;;;;;;8.80;3.60;;;;;;;19.62;83.20;101124.25;5025436;28;20468;-72
2023/08/15 03:44:26;;;;;;;9.80;3.42;;;;;;;19.57;83.13;101121.88;5026173;28;20042;-72
2023/08/15 03:46:53;;;;;;;6.95;3.67;;;;;;;19.57;82.94;101118.34;5026601;28;20045;-72
2023/08/15 03:49:21;;;;;;;5.43;3.40;;;;;;;19.52;83.03;101107.97;5008341;28;20045;-72
2023/08/15 03:51:48;;;;;;;8.57;3.60;;;;;;;19.44;82.51;101111.09;5025390;28;20481;-72
2023/08/15 03:54:16;;;;;;;10.95;4.07;;;;;;;19.36;83.00;101108.06;5008858;28;20064;-72
2023/08/15 03:56:45;;;;;;;12.82;4.03;;;;;;;19.28;83.28;101108.53;5007193;28;20129;-73
2023/08/15 03:59:12;;;;;;;7.78;3.58;;;;;;;19.19;83.22;101099.28;5025850;28;20192;-73
2023/08/15 04:01:40;;;;;;;13.85;3.88;;;;;;;19.09;83.74;101106.16;5008454;28;20041;-73
2023/08/15 04:04:08;;;;;;;8.52;3.55;;;;;;;18.97;83.96;101105.13;5008694;28;20423;-72
2023/08/15 04:06:35;;;;;;;8.73;3.65;;;;;;;18.91;84.27;101108.97;5024967;28;20053;-73
2023/08/15 04:09:02;;;;;;;10.73;3.53;;;;;;;18.84;84.80;101118.34;5024385;28;20465;-72
2023/08/15 04:11:30;;;;;;;8.38;3.63;;;;;;;18.76;85.19;101113.44;5007464;28;20064;-73
2023/08/15 04:13:58;;;;;;;10.65;3.70;;;;;;;18.69;85.47;101120.13;5008059;28;20056;-73
2023/08/15 04:16:26;;;;;;;8.02;3.40;;;;;;;18.62;86.12;101122.28;5008090;28;20041;-72
2023/08/15 04:18:53;;;;;;;7.20;3.30;;;;;;;18.56;86.92;101125.34;5025563;28;20103;-73
2023/08/15 04:21:20;;;;;;;9.07;4.07;;;;;;;18.47;86.76;101125.88;5025222;28;20091;-72
2023/08/15 04:23:47;;;;;;;9.98;3.80;;;;;;;18.41;87.64;101136.91;5025508;28;20046;-72
2023/08/15 04:26:15;;;;;;;11.85;3.70;;;;;;;18.36;87.16;101142.53;5024461;28;20099;-72
2023/08/15 04:28:42;;;;;;;12.32;4.45;;;;;;;18.36;87.99;101147.00;5023697;28;20138;-73
2023/08/15 04:31:09;;;;;;;8.93;3.83;;;;;;;18.37;87.82;101167.38;5007488;28;20049;-72
2023/08/15 04:33:36;;;;;;;12.13;3.85;;;;;;;18.36;87.75;101145.19;5007260;28;20068;-72
2023/08/15 04:36:03;;;;;;;12.10;3.80;;;;;;;18.35;87.65;101145.28;5024567;28;20053;-72
2023/08/15 04:38:31;;;;;;;8.65;3.67;;;;;;;18.31;87.78;101158.81;5007085;28;20482;-72
2023/08/15 04:41:00;;;;;;;12.82;3.88;;;;;;;18.31;87.93;101157.97;5007104;28;20037;-73
2023/08/15 04:43:27;;;;;;;10.00;3.80;;;;;;;18.30;88.17;101165.09;5023107;28;20534;-72
2023/08/15 04:45:54;;;;;;;12.55;4.07;;;;;;;18.27;88.05;101167.91;5006536;28;20056;-73
2023/08/15 04:48:23;;;;;;;9.88;4.03;;;;;;;18.24;88.56;101172.56;5009377;28;20099;-72
2023/08/15 04:50:51;;;;;;;13.15;3.80;;;;;;;18.21;88.68;101178.13;5024252;28;20573;-72
2023/08/15 04:53:18;;;;;;;10.00;4.30;;;;;;;18.20;88.92;101193.25;5025506;28;20045;-73
2023/08/15 04:55:47;;;;;;;9.18;3.75;;;;;;;18.20;89.04;101192.41;5007179;28;20053;-72
2023/08/15 04:58:14;;;;;;;11.20;4.32;;;;;;;18.25;89.37;101193.84;5023350;28;20045;-73
2023/08/15 05:00:42;;;;;;;14.18;4.43;;;;;;;18.26;89.15;101192.03;5026454;28;20034;-72
2023/08/15 05:03:09;;;;;;;9.93;3.92;;;;;;;18.25;89.20;101199.19;5007185;28;20060;-72
2023/08/15 05:05:36;;;;;;;11.35;4.22;;;;;;;18.26;89.04;101214.22;5024640;28;20038;-72
2023/08/15 05:08:06;;;;;;;13.82;4.25;;;;;;;18.28;89.19;101212.34;5006717;28;20057;-72
2023/08/15 05:10:34;;;;;;;10.43;4.28;;;;;;;18.28;89.30;101225.69;5007369;28;20130;-72
2023/08/15 05:13:02;;;;;;;12.27;4.50;;;;;;;18.30;89.08;101228.28;5024474;28;20037;-72
2023/08/15 05:15:29;;;;;;;13.70;4.07;;;;;;;18.31;89.33;101238.88;5006208;28;20489;-72
2023/08/15 05:17:57;;;;;;;10.43;3.65;;;;;;;18.33;89.21;101252.09;5008028;28;20049;-72
2023/08/15 05:20:24;;;;;;;9.38;4.28;;;;;;;18.34;88.76;101248.50;5006332;28;20133;-72
2023/08/15 05:22:51;;;;;;;14.07;4.35;;;;;;;18.36;88.96;101249.28;5006392;28;20046;-72
2023/08/15 05:25:20;;;;;;;10.63;4.13;;;;;;;18.39;88.94;101254.44;5006500;28;20049;-72
2023/08/15 05:27:50;;;;;;;10.25;4.25;;;;;;;18.42;88.86;101253.41;5005756;28;20044;-72
2023/08/15 05:30:17;;;;;;;10.70;4.00;;;;;;;18.44;88.95;101260.38;5007006;28;20465;-72
2023/08/15 05:32:44;;;;;;;10.00;4.20;;;;;;;18.43;88.27;101258.66;5025256;28;20344;-72
2023/08/15 05:35:12;;;;;;;10.80;4.15;;;;;;;18.50;88.60;101277.00;5025460;28;20052;-73
2023/08/15 05:37:40;;;;;;;8.82;3.78;;;;;;;18.53;88.67;101277.69;5007332;28;20277;-72
2023/08/15 05:40:08;;;;;;;11.45;4.55;;;;;;;18.55;88.26;101278.47;5022713;28;20136;-72
2023/08/15 05:42:35;;;;;;;14.48;3.85;;;;;;;19.56;85.39;101269.88;5006622;28;20056;-73
2023/08/15 05:45:03;;;;;;;11.23;3.47;;;;;;;21.62;79.50;101266.38;5028459;28;20099;-72
2023/08/15 05:47:30;;;;;;;9.80;3.78;;;;;;;23.22;73.62;101263.66;5027294;28;20100;-72
2023/08/15 05:49:57;;;;;;;8.90;3.10;;;;;;;24.54;68.66;101264.00;5027693;28;20051;-73
2023/08/15 05:52:26;;;;;;;9.88;3.45;;;;;;;24.80;65.36;101254.59;5028122;28;20456;-73
2023/08/15 05:54:55;;;;;;;8.02;3.00;;;;;;;23.82;67.27;101263.47;5029429;28;20103;-72
2023/08/15 05:57:23;;;;;;;8.98;3.63;;;;;;;22.85;69.89;101274.53;5026886;28;20045;-73
2023/08/15 05:59:50;;;;;;;8.05;3.20;;;;;;;22.13;72.10;101274.34;5030286;28;20111;-73
2023/08/15 06:02:19;;;;;;;7.38;3.53;;;;;;;21.57;73.74;101272.88;5027733;28;20053;-73
2023/08/15 06:04:46;;;;;;;10.80;3.35;;;;;;;21.15;75.42;101274.91;5027887;28;20045;-73
2023/08/15 06:07:13;;;;;;;10.18;3.50;;;;;;;20.88;76.88;101275.81;5026978;28;20037;-72
2023/08/15 06:09:40;;;;;;;11.20;3.38;;;;;;;20.69;77.80;101278.84;5026738;28;20049;-73
2023/08/15 06:12:08;;;;;;;10.38;3.17;;;;;;;20.54;78.68;101278.03;5026846;28;20042;-72
2023/08/15 06:14:40;;;;;;;7.32;3.00;;;;;;;20.48;79.51;101283.78;5040898;28;20103;-70
2023/08/15 06:17:07;;;;;;;8.02;3.13;;;;;;;20.43;79.58;101288.59;5027708;28;20045;-72
2023/08/15 06:19:38;;;;;;;9.35;3.55;;;;;;;20.41;80.25;101287.81;5027052;28;20426;-71
2023/08/15 06:22:05;;;;;;;10.98;3.80;;;;;;;20.40;80.54;101289.63;5027785;28;20163;-73
2023/08/15 06:24:33;;;;;;;9.82;3.95;;;;;;;20.41;80.68;101302.06;5027783;28;20124;-73
2023/08/15 06:27:00;;;;;;;8.98;3.42;;;;;;;20.42;80.49;101298.41;5027516;28;20568;-71
2023/08/15 06:29:27;;;;;;;7.90;2.95;;;;;;;20.40;80.72;101299.47;5026871;28;20133;-73
2023/08/15 06:31:57;;;;;;;10.60;3.25;;;;;;;20.40;80.85;101297.66;5029013;28;20041;-73
2023/08/15 06:34:24;;;;;;;9.63;3.45;;;;;;;20.45;81.06;101308.09;5027179;28;20053;-72
2023/08/15 06:36:53;;;;;;;9.32;3.42;;;;;;;20.52;80.91;101313.88;5027197;28;20045;-73
2023/08/15 06:39:20;;;;;;;10.02;3.40;;;;;;;20.58;80.91;101309.00;5025844;28;20072;-71
2023/08/15 06:41:47;;;;;;;9.70;3.30;;;;;;;20.68;80.74;101313.75;5026841;28;20102;-71
2023/08/15 06:44:14;;;;;;;8.98;3.60;;;;;;;20.73;80.50;101309.81;5026179;28;20041;-71
2023/08/15 06:46:41;;;;;;;9.63;3.40;;;;;;;20.79;80.15;101311.25;5017990;28;20136;-72
2023/08/15 06:49:09;;;;;;;12.90;4.05;;;;;;;20.87;79.98;101318.78;5020597;28;20490;-73
2023/08/15 06:51:36;;;;;;;10.95;3.83;;;;;;;20.89;79.75;101319.56;5027855;28;20484;-72
2023/08/15 06:54:03;;;;;;;9.45;3.40;;;;;;;20.92;79.79;101322.88;5027406;28;20065;-73
2023/08/15 06:56:30;;;;;;;9.93;3.90;;;;;;;20.97;79.44;101322.56;5026364;28;20460;-72
2023/08/15 06:58:58;;;;;;;10.80;3.70;;;;;;;21.05;79.47;101330.94;5025472;28;20046;-72
2023/08/15 07:01:25;;;;;;;7.82;3.60;;;;;;;21.07;78.88;101334.41;5029937;28;20100;-73
2023/08/15 07:03:52;;;;;;;10.00;3.83;;;;;;;21.08;79.10;101327.19;5025470;28;20045;-74
2023/08/15 07:06:19;;;;;;;13.13;4.43;;;;;;;21.09;78.92;101332.47;5029888;28;20160;-72
2023/08/15 07:08:47;;;;;;;7.95;3.67;;;;;;;21.07;78.53;101339.75;5025608;28;20047;-74
2023/08/15 07:11:14;;;;;;;10.85;4.47;;;;;;;21.12;78.68;101336.75;5019618;28;20101;-71
2023/08/15 07:13:41;;;;;;;11.98;4.15;;;;;;;21.19;79.08;101337.22;5022241;28;20107;-71
2023/08/15 07:16:08;;;;;;;8.98;4.20;;;;;;;21.27;78.72;101324.16;5027485;28;20044;-71
2023/08/15 07:18:36;;;;;;;10.98;4.70;;;;;;;21.35;78.27;101326.31;5025690;28;20493;-71
2023/08/15 07:21:03;;;;;;;9.80;4.30;;;;;;;21.39;78.24;101330.47;5027233;28;20046;-71
2023/08/15 07:23:30;;;;;;;9.65;4.38;;;;;;;21.43;78.16;101332.00;5026701;28;20061;-71
2023/08/15 07:25:58;;;;;;;9.57;4.57;;;;;;;21.54;77.51;101341.97;5007628;28;20489;-72
2023/08/15 07:28:25;;;;;;;14.30;4.05;;;;;;;21.62;77.53;101341.50;5014088;28;20359;-72
2023/08/15 07:30:52;;;;;;;11.07;3.97;;;;;;;21.68;75.83;101338.38;5025721;28;20037;-72
2023/08/15 07:33:19;;;;;;;13.25;4.18;;;;;;;21.72;75.43;101338.03;5025883;28;20041;-72
2023/08/15 07:35:47;;;;;;;10.60;3.97;;;;;;;21.77;75.41;101335.06;5026324;28;20055;-72
2023/08/15 07:38:14;;;;;;;13.00;4.32;;;;;;;21.86;75.50;101339.78;5024519;28;20596;-71
2023/08/15 07:40:41;;;;;;;9.43;4.63;;;;;;;21.99;75.81;101333.53;5025654;28;20045;-72
2023/08/15 07:43:09;;;;;;;11.30;4.15;;;;;;;22.05;75.71;101341.16;5024944;28;20077;-73
2023/08/15 07:45:36;;;;;;;7.82;3.70;;;;;;;22.05;74.65;101337.59;5027299;28;20466;-71
2023/08/15 07:48:04;;;;;;;13.07;4.07;;;;;;;22.06;74.76;101352.75;5026393;28;20052;-73
2023/08/15 07:50:31;;;;;;;10.63;4.13;;;;;;;22.05;75.21;101349.22;5025720;28;20041;-73
2023/08/15 07:52:59;;;;;;;10.18;4.18;;;;;;;22.14;74.32;101345.88;5025342;28;20049;-72
2023/08/15 07:55:29;;;;;;;12.55;4.10;;;;;;;22.24;74.54;101351.44;5004394;28;20082;-73
2023/08/15 07:57:59;;;;;;;8.23;3.60;;;;;;;22.39;73.20;101357.50;4989743;28;20514;-72
2023/08/15 08:00:27;;;;;;;12.27;4.32;;;;;;;22.63;72.86;101360.31;4986310;28;20369;-73
2023/08/15 08:02:54;;;;;;;8.55;3.88;;;;;;;22.69;72.41;101348.22;4987082;28;20068;-73
2023/08/15 08:05:21;;;;;;;10.35;4.07;;;;;;;22.77;70.97;101347.66;4985111;28;20272;-73
2023/08/15 08:07:50;;;;;;;11.43;4.43;;;;;;;22.74;71.67;101358.66;4986295;28;20045;-73
2023/08/15 08:10:18;;;;;;;10.07;3.97;;;;;;;22.72;71.83;101364.13;4988354;28;20143;-73
2023/08/15 08:12:48;;;;;;;11.90;4.28;;;;;;;22.73;72.50;101370.38;4986156;28;20058;-73
2023/08/15 08:15:15;;;;;;;12.23;4.72;;;;;;;22.74;71.90;101367.56;5000779;28;20122;-72
2023/08/15 08:17:42;;;;;;;10.30;4.45;;;;;;;22.80;72.20;101377.00;4986770;28;20302;-71
2023/08/15 08:20:12;;;;;;;11.43;4.78;;;;;;;22.96;71.75;101374.88;4985566;28;20566;-71
2023/08/15 08:22:40;;;;;;;11.85;4.75;;;;;;;23.13;70.98;101371.91;4986471;28;20754;-71
2023/08/15 08:25:16;;;;;;;11.25;4.60;;;;;;;23.20;71.06;101367.78;4986738;28;20070;-73
2023/08/15 08:27:44;;;;;;;11.10;5.00;;;;;;;23.29;71.48;101369.81;4986005;28;20518;-72
2023/08/15 08:30:22;;;;;;;10.50;5.00;;;;;;;23.37;70.86;101366.50;4985719;28;20411;-73
2023/08/15 08:32:52;;;;;;;11.85;4.82;;;;;;;23.52;70.55;101375.25;4985777;28;20108;-71
2023/08/15 08:35:19;;;;;;;11.85;4.80;;;;;;;23.65;70.10;101384.09;4985774;28;20053;-73
2023/08/15 08:37:47;;;;;;;10.98;4.55;;;;;;;23.75;69.74;101380.69;4985321;28;20097;-72
2023/08/15 08:40:17;;;;;;;14.18;5.15;;;;;;;23.81;68.53;101381.06;4988944;28;20054;-73
2023/08/15 08:42:45;;;;;;;11.13;4.72;;;;;;;23.79;68.08;101380.31;4985430;28;20050;-73
2023/08/15 08:45:13;;;;;;;9.85;4.75;;;;;;;23.80;67.86;101378.50;5000028;28;20053;-71
2023/08/15 08:47:41;;;;;;;9.27;4.60;;;;;;;23.78;68.47;101385.84;4985675;28;20453;-72
2023/08/15 08:50:10;;;;;;;9.82;4.95;;;;;;;23.86;68.11;101378.84;4984269;28;20044;-72
2023/08/15 08:52:42;;;;;;;13.38;4.45;;;;;;;23.88;67.01;101376.06;4985801;28;20046;-74
2023/08/15 08:55:09;;;;;;;9.13;4.72;;;;;;;23.84;67.34;101380.84;4999295;28;20061;-71
2023/08/15 08:57:39;;;;;;;11.27;4.68;;;;;;;23.86;66.70;101386.94;5025908;28;20069;-74
2023/08/15 09:00:10;;;;;;;11.73;3.75;;;;;;;23.94;66.01;101388.19;5025000;28;20353;-71
2023/08/15 09:02:37;;;;;;;8.45;3.75;;;;;;;24.12;66.00;101392.13;5026674;28;20033;-74
2023/08/15 09:05:07;;;;;;;9.10;3.72;;;;;;;24.29;64.38;101388.09;5025033;28;20202;-72
2023/08/15 09:07:35;;;;;;;8.27;4.05;;;;;;;24.42;63.81;101385.28;5007198;28;20056;-74
2023/08/15 09:10:05;;;;;;;11.07;3.88;;;;;;;24.49;63.74;101377.56;5024885;28;20423;-74
2023/08/15 09:12:39;;;;;;;6.75;3.97;;;;;;;24.64;64.69;101373.59;5024074;28;20244;-72
2023/08/15 09:15:10;;;;;;;13.75;4.53;;;;;;;24.84;64.72;101379.22;5023849;28;20050;-74
2023/08/15 09:17:38;;;;;;;8.35;4.40;;;;;;;25.01;63.82;101379.66;5024721;28;20234;-72
2023/08/15 09:20:11;;;;;;;10.10;3.70;;;;;;;25.13;63.21;101386.75;5024691;28;20509;-73
2023/08/15 09:22:45;;;;;;;9.45;3.67;;;;;;;25.26;63.19;101386.56;5023727;28;20490;-73
2023/08/15 09:25:15;;;;;;;8.18;3.80;;;;;;;25.43;62.24;101391.41;5024136;28;20041;-73
2023/08/15 09:27:43;;;;;;;7.28;3.50;;;;;;;25.60;61.94;101399.88;5017659;28;20046;-73
2023/08/15 09:30:13;;;;;;;10.48;3.33;;;;;;;25.71;60.21;101393.59;5023812;28;20073;-73
2023/08/15 09:32:42;;;;;;;11.70;3.40;;;;;;;25.84;60.87;101390.66;5024584;28;20103;-73
2023/08/15 09:35:12;;;;;;;13.13;3.88;;;;;;;25.94;59.96;101402.38;5026372;28;20055;-74
2023/08/15 09:37:45;;;;;;;9.30;3.10;;;;;;;25.87;60.10;101407.47;5024276;28;20431;-72
2023/08/15 09:40:16;;;;;;;9.23;3.00;;;;;;;25.82;58.77;101408.84;5024537;28;20080;-73
2023/08/15 09:42:45;;;;;;;9.38;2.80;;;;;;;25.86;59.49;101403.03;5025342;28;20049;-72
2023/08/15 09:45:15;;;;;;;10.82;2.85;;;;;;;25.91;59.60;101418.84;5022657;28;20049;-72
2023/08/15 09:47:44;;;;;;;6.80;3.03;;;;;;;25.84;58.71;101429.31;5023311;28;20029;-73
2023/08/15 09:50:14;;;;;;;9.77;2.70;;;;;;;25.71;58.64;101420.59;5017162;28;20112;-73
2023/08/15 09:52:45;;;;;;;7.28;2.78;;;;;;;25.73;59.36;101416.75;5004099;28;20057;-72
2023/08/15 09:55:17;;;;;;;8.00;3.00;;;;;;;25.87;59.04;101429.06;5018037;28;20425;-72
2023/08/15 09:57:45;;;;;;;8.52;2.72;;;;;;;25.84;58.80;101432.00;5024527;28;20125;-72
2023/08/15 10:00:17;;;;;;;9.27;2.55;;;;;;;25.77;58.72;101433.53;5024758;28;20096;-72
2023/08/15 10:03:22;;;;;;;12.27;3.13;;;;;;;25.70;58.43;101435.91;5024758;28;20124;-72
2023/08/15 10:05:56;;;;;;;8.80;2.47;;;;;;;25.66;58.66;101436.31;5023951;28;20265;-73
2023/08/15 10:08:24;;;;;;;10.07;3.08;;;;;;;25.62;59.23;101442.97;5006192;28;20047;-73
2023/08/15 10:10:53;;;;;;;7.03;2.60;;;;;;;25.57;59.65;101446.91;5026153;28;20060;-72
2023/08/15 10:13:27;;;;;;;7.15;2.47;;;;;;;25.67;59.09;101449.69;5024131;28;20530;-74
2023/08/15 10:15:55;;;;;;;9.38;2.55;;;;;;;25.62;59.47;101451.91;5022145;28;20078;-73
2023/08/15 10:18:23;;;;;;;13.95;2.88;;;;;;;25.69;58.92;101441.44;5024414;28;20069;-72
2023/08/15 10:20:52;;;;;;;8.98;2.80;;;;;;;25.72;58.85;101452.00;5005719;28;20129;-72
2023/08/15 10:23:34;;;;;;;13.77;2.55;;;;;;;25.78;59.28;101454.16;5023918;28;20468;-72
2023/08/15 10:26:02;;;;;;;9.27;2.90;;;;;;;25.78;59.90;101458.72;5023620;28;20554;-73
2023/08/15 10:28:33;;;;;;;11.00;2.38;;;;;;;25.98;59.46;101462.38;5024965;28;20068;-72
2023/08/15 10:31:01;;;;;;;11.13;3.03;;;;;;;26.09;59.31;101456.06;5025527;28;20277;-74
2023/08/15 10:33:31;;;;;;;10.13;3.20;;;;;;;26.12;58.46;101458.50;5027088;28;20478;-72
2023/08/15 10:35:58;;;;;;;8.82;2.80;;;;;;;26.13;56.80;101461.09;5028067;28;20056;-72
2023/08/15 10:38:39;;;;;;;9.35;3.10;;;;;;;26.19;57.70;101465.97;5027268;28;20394;-74
2023/08/15 10:41:14;;;;;;;10.18;3.05;;;;;;;26.19;57.99;101467.81;5026914;28;20886;-72
2023/08/15 10:43:49;;;;;;;9.50;3.00;;;;;;;26.08;58.26;101466.00;5028139;28;20451;-72
2023/08/15 10:46:23;;;;;;;11.52;2.80;;;;;;;26.00;58.07;101469.34;5025576;28;20795;-72
2023/08/15 10:48:55;;;;;;;6.90;2.28;;;;;;;26.08;58.09;101466.00;5027796;28;20045;-72
2023/08/15 10:51:36;;;;;;;6.63;2.75;;;;;;;26.26;57.50;101458.19;5025846;28;20132;-73
2023/08/15 10:54:13;;;;;;;6.22;2.45;;;;;;;26.43;57.03;101458.53;5027211;28;20041;-72
2023/08/15 10:56:42;;;;;;;6.53;2.90;;;;;;;26.37;57.15;101454.50;5026575;28;20554;-73
2023/08/15 10:59:13;;;;;;;7.78;2.70;;;;;;;26.45;56.90;101449.31;5029135;28;20056;-74
2023/08/15 11:01:44;;;;;;;10.20;3.00;;;;;;;26.51;57.22;101445.19;5027240;28;20542;-74
2023/08/15 11:04:17;;;;;;;8.18;2.50;;;;;;;26.61;55.97;101459.59;5008219;28;20053;-73
2023/08/15 11:06:47;;;;;;;10.65;3.17;;;;;;;26.59;55.41;101456.19;5027694;28;20045;-73
2023/08/15 11:09:16;;;;;;;9.57;2.60;;;;;;;26.67;56.13;101460.88;5007733;28;20173;-73
2023/08/15 11:11:45;;;;;;;8.40;2.63;;;;;;;26.79;55.81;101459.81;5019597;28;20583;-72
2023/08/15 11:14:18;;;;;;;9.00;2.65;;;;;;;26.96;55.20;101465.56;5026443;28;20119;-72
2023/08/15 11:16:49;;;;;;;10.52;2.63;;;;;;;27.07;55.53;101467.28;5027542;28;20800;-72
2023/08/15 11:19:18;;;;;;;9.45;2.22;;;;;;;27.10;53.48;101469.72;5026277;28;20053;-72
2023/08/15 11:21:48;;;;;;;10.02;3.10;;;;;;;27.04;54.24;101467.56;5026406;28;20059;-71
2023/08/15 11:24:16;;;;;;;11.95;2.90;;;;;;;27.11;54.94;101479.56;5026352;28;20054;-73
2023/08/15 11:26:44;;;;;;;12.05;2.25;;;;;;;27.24;54.67;101479.28;5026768;28;20046;-73
2023/08/15 11:29:12;;;;;;;7.13;2.38;;;;;;;27.28;53.86;101478.00;5026599;28;20152;-74